WetterOnline ( https://www.wetteronline.de )

Wetter aktuell Barsbüttel

Aktuelles Wetter: Hamburg/Fuhlsbüttel (15m)

6-stündlich | Neueste Meldungen
Ortszeit Temperatur Wetter
Di, 12.11. 7:00 5.6° C bewölkt
Di, 12.11. 1:00 3.1° C bewölkt
Mo, 11.11. 19:00 3.4° C wolkig
Mo, 11.11. 13:00 4.4° C leicht bewölkt
Mo, 11.11. 7:00 0.4° C leicht bewölkt
Mo, 11.11. 1:00 4.5° C bewölkt
So, 10.11. 19:00 4.7° C leicht bewölkt
So, 10.11. 13:00 7.9° C fast wolkenlos
Ortszeit Temperatur Wetter
Di, 12.11. 9:00 5.9° C bewölkt
Di, 12.11. 8:50 6° C bewölkt
Di, 12.11. 8:40 5.7° C -
Di, 12.11. 8:30 5.7° C -
Di, 12.11. 8:20 5.7° C -
Di, 12.11. 8:10 5.7° C -
Di, 12.11. 8:00 5.5° C bewölkt
Di, 12.11. 7:30 5.5° C -
Di, 12.11. 7:00 5.6° C bewölkt
Di, 12.11. 6:30 5.5° C -
Di, 12.11. 6:00 5.2° C bewölkt
Di, 12.11. 5:30 4.8° C -
Ortszeit Relative Feuchte Sichtweite
Di, 12.11. 7:00 78% 30 km
Di, 12.11. 1:00 85% 20 km
Mo, 11.11. 19:00 87% 15 km
Mo, 11.11. 13:00 84% 16 km
Mo, 11.11. 7:00 92% 9 km
Mo, 11.11. 1:00 81% 20 km
So, 10.11. 19:00 83% 25 km
So, 10.11. 13:00 68% 25 km
Ortszeit Relative Feuchte Sichtweite
Di, 12.11. 9:00 76% 35 km
Di, 12.11. 8:50 75% >10 km
Di, 12.11. 8:40 78% -
Di, 12.11. 8:30 77% 35 km
Di, 12.11. 8:20 77% -
Di, 12.11. 8:10 77% -
Di, 12.11. 8:00 78% 35 km
Di, 12.11. 7:30 78% 30 km
Di, 12.11. 7:00 78% 30 km
Di, 12.11. 6:30 79% 30 km
Di, 12.11. 6:00 79% 25 km
Di, 12.11. 5:30 80% 26 km
Ortszeit Niederschlagsmenge Niederschlagsart
Di, 12.11. 7:00 0.0 l/m2 in 12 Std. -
Di, 12.11. 1:00 0.0 l/m2 in 6 Std. -
Mo, 11.11. 19:00 0.0 l/m2 in 12 Std. -
Mo, 11.11. 13:00 0.0 l/m2 in 6 Std. -
Mo, 11.11. 7:00 0.0 l/m2 in 12 Std. -
Mo, 11.11. 1:00 0.0 l/m2 in 6 Std. -
So, 10.11. 19:00 0.0 l/m2 in 12 Std. -
So, 10.11. 13:00 0.0 l/m2 in 6 Std. -
Ortszeit Niederschlagsmenge Niederschlagsart
Di, 12.11. 9:00 0.0 l/m2 in 1 Std. -
Di, 12.11. 8:50 keine Meldung -
Di, 12.11. 8:40 keine Meldung -
Di, 12.11. 8:30 0.0 l/m2 in 1 Std. -
Di, 12.11. 8:20 keine Meldung -
Di, 12.11. 8:10 keine Meldung -
Di, 12.11. 8:00 0.0 l/m2 in 1 Std. -
Di, 12.11. 7:30 0.0 l/m2 in 1 Std. -
Di, 12.11. 7:00 0.0 l/m2 in 1 Std. -
Di, 12.11. 6:30 0.0 l/m2 in 1 Std. -
Di, 12.11. 6:00 0.0 l/m2 in 1 Std. -
Di, 12.11. 5:30 0.0 l/m2 in 1 Std. -
Ortszeit Stärke Spitze Richtung
km/h Bft. km/h Grad Sektor
Di, 12.11. 7:00 17 3 30 170° S
Di, 12.11. 1:00 17 3 39 150° SO
Mo, 11.11. 19:00 22 4 37 150° SO
Mo, 11.11. 13:00 18 3 29 140° SO
Mo, 11.11. 7:00 11 2 22 160° S
Mo, 11.11. 1:00 14 3 25 190° S
So, 10.11. 19:00 11 2 22 190° S
So, 10.11. 13:00 13 3 20 190° S
Ortszeit Stärke Spitze Richtung
km/h Bft. km/h Grad Sektor
Di, 12.11. 9:00 22 4 43 180° S
Di, 12.11. 8:50 22 4 - 170° S
Di, 12.11. 8:40 24 4 - 170° S
Di, 12.11. 8:30 22 4 32 170° S
Di, 12.11. 8:20 22 4 - 170° S
Di, 12.11. 8:10 24 4 - 170° S
Di, 12.11. 8:00 22 4 43 170° S
Di, 12.11. 7:30 22 4 43 160° S
Di, 12.11. 7:00 17 3 30 170° S
Di, 12.11. 6:30 22 4 29 180° S
Di, 12.11. 6:00 17 3 28 180° S
Di, 12.11. 5:30 18 3 29 170° S
Ortszeit Untergrenze Bedeckung Gattung
total tief tief mittel hoch
Di, 12.11. 7:00 600 m 7/8 7/8 Sc - -
Di, 12.11. 1:00 660 m 7/8 7/8 Sc - -
Mo, 11.11. 19:00 240 m 7/8 4/8 St Ac -
Mo, 11.11. 13:00 270 m 4/8 1/8 St - Ci
Mo, 11.11. 7:00 3000 m 5/8 1/8 - Ac Ci
Mo, 11.11. 1:00 840 m 7/8 7/8 Sc - Cs
So, 10.11. 19:00 2400 m 2/8 2/8 - Ac -
So, 10.11. 13:00 3600 m 1/8 1/8 - Ac -
Ortszeit Bedeckungsgrad in Achtel und Wolkenuntergrenze
Di, 12.11. 9:00 1(510m) 5(630m) 7(930m)
Di, 12.11. 8:50 1-2(510m) 5-7(630m) 5-7(930m)
Di, 12.11. 8:40 -
Di, 12.11. 8:30 -
Di, 12.11. 8:20 -
Di, 12.11. 8:10 -
Di, 12.11. 8:00 3(540m) 7(1020m)
Di, 12.11. 7:30 -
Di, 12.11. 7:00 1(600m) 7(810m)
Di, 12.11. 6:30 -
Di, 12.11. 6:00 1(510m) 7(630m)
Di, 12.11. 5:30 -
Ortszeit Luftdruck NN (hPa) Tendenz (hPa in 3 Std.)
Di, 12.11. 7:00 1001 0,0
Di, 12.11. 1:00 1002 - 0,9
Mo, 11.11. 19:00 1004 - 1,7
Mo, 11.11. 13:00 1008 - 2,2
Mo, 11.11. 7:00 1011 - 1,7
Mo, 11.11. 1:00 1013 - 1,0
So, 10.11. 19:00 1014 + 0,5
So, 10.11. 13:00 1013 + 0,1
Ortszeit Luftdruck NN (hPa) Tendenz (hPa in 3 Std.)
Di, 12.11. 9:00 1002 + 0,5
Di, 12.11. 8:50 1001 keine Meldung
Di, 12.11. 8:40 1002 keine Meldung
Di, 12.11. 8:30 1001 + 0,5
Di, 12.11. 8:20 1001 keine Meldung
Di, 12.11. 8:10 1001 keine Meldung
Di, 12.11. 8:00 1001 + 0,6
Di, 12.11. 7:30 1001 + 0,4
Di, 12.11. 7:00 1001 0,0
Di, 12.11. 6:30 1001 - 0,1
Di, 12.11. 6:00 1001 - 0,2
Di, 12.11. 5:30 1001 - 0,2
Ortszeit Schneehöhe (cm)
Di, 12.11. 7:00 0
Di, 12.11. 1:00 0
Mo, 11.11. 19:00 0
Mo, 11.11. 13:00 0
Mo, 11.11. 7:00 0
Mo, 11.11. 1:00 0
So, 10.11. 19:00 0
So, 10.11. 13:00 0
Ortszeit Schneehöhe (cm)
Di, 12.11. 9:00 -
Di, 12.11. 8:50 -
Di, 12.11. 8:40 -
Di, 12.11. 8:30 -
Di, 12.11. 8:20 -
Di, 12.11. 8:10 -
Di, 12.11. 8:00 -
Di, 12.11. 7:30 -
Di, 12.11. 7:00 0
Di, 12.11. 6:30 -
Di, 12.11. 6:00 -
Di, 12.11. 5:30 -
Link zu dieser Seite / Seite empfehlen

Das Wetter in ...